Buoy 52514

sailwx.info

Track history (hours):
 
Tides and Currents Weather Stations Pressure Air Temp Water Temp Dewpoint Dewpoint Depression Visibility Wind Speed Wind Dir Waves Ship Positions

Drifting buoy 52514

Last reported at 2015-Jul-28 22:00 UTC. Time now 2015-Jul-29 00:35 UTC.
Position N 20°25' E 123°14'.

Date/timePositionNaut miles runAvg speedWind from/ knotsBaromVisibWave heightAir tempDewpointWater temp
2015-Jul-28 22:00N 20°25' E 123°14'0 0.1
2015-Jul-28 21:00N 20°25' E 123°14'1 0.3
2015-Jul-28 19:00N 20°25' E 123°14'1 0.7
2015-Jul-28 18:00N 20°26' E 123°15'5 0.5
2015-Jul-28 09:00N 20°24' E 123°10'10 0.8
2015-Jul-27 20:00N 20°17' E 123°19'0 0.3
2015-Jul-27 19:00N 20°17' E 123°19'2 0.4
2015-Jul-27 14:00N 20°19' E 123°20'4 0.8
2015-Jul-27 09:00N 20°19' E 123°16'2 0.5
2015-Jul-27 05:00N 20°17' E 123°15'5 0.7
2015-Jul-26 22:00N 20°12' E 123°17'1 1.0
2015-Jul-26 21:00N 20°12' E 123°18'0 0.4
2015-Jul-26 20:00N 20°12' E 123°18'1 0.4
2015-Jul-26 17:00N 20°12' E 123°19'0 0.0
2015-Jul-26 16:00N 20°12' E 123°19'2 0.7
2015-Jul-26 13:00N 20°13' E 123°21'0 0.3
2015-Jul-26 12:00N 20°14' E 123°21'1 1.3
2015-Jul-26 11:00N 20°15' E 123°21'1 0.5
2015-Jul-26 09:00N 20°15' E 123°20'2 0.9
2015-Jul-26 07:00N 20°14' E 123°18'1 0.3
2015-Jul-26 05:00N 20°14' E 123°17'1 0.5
2015-Jul-26 02:00N 20°13' E 123°18'0 0.1
2015-Jul-25 22:00N 20°13' E 123°17'1 0.2
2015-Jul-25 18:00N 20°12' E 123°18'0 0.1
2015-Jul-25 17:00N 20°12' E 123°18'3 0.4
2015-Jul-25 08:00N 20°15' E 123°20'1 0.8
2015-Jul-25 07:00N 20°14' E 123°19'0 0.4
2015-Jul-25 06:00N 20°14' E 123°20'0 0.0
2015-Jul-25 05:00N 20°14' E 123°20'2 0.3
2015-Jul-24 22:00N 20°14' E 123°22'0 0.2
2015-Jul-24 21:00N 20°14' E 123°22'1 0.3
2015-Jul-24 18:00N 20°14' E 123°23'0 0.0
2015-Jul-24 17:00N 20°14' E 123°23'12 0.4
2015-Jul-23 09:00N 20°07' E 123°34'2 1.6
2015-Jul-23 08:00N 20°06' E 123°35'3 0.2
2015-Jul-22 20:00N 20°06' E 123°37'6 0.4
2015-Jul-22 06:00N 20°00' E 123°39'0 0.3
2015-Jul-22 05:00N 20°00' E 123°39'3 0.4
2015-Jul-21 22:00N 19°59' E 123°42'0 0.5
2015-Jul-21 21:00N 19°59' E 123°41'4 0.3
2015-Jul-21 08:00N 19°56' E 123°45'2 1.0
2015-Jul-21 06:00N 19°54' E 123°46'0 0.0
2015-Jul-21 05:00N 19°54' E 123°46'2 0.3
2015-Jul-20 22:00N 19°53' E 123°48'0 0.4
2015-Jul-20 21:00N 19°53' E 123°47'3 0.7
2015-Jul-20 17:00N 19°51' E 123°50'1 0.3
2015-Jul-20 14:00N 19°51' E 123°51'0 0.1
2015-Jul-20 12:00N 19°51' E 123°51'3 0.3
2015-Jul-20 02:00N 19°48' E 123°50'3 0.5
2015-Jul-19 19:00N 19°47' E 123°47'  
Track history (hours):
 
Tides and Currents Weather Stations Pressure Air Temp Water Temp Dewpoint Dewpoint Depression Visibility Wind Speed Wind Dir Waves Ship Positions

Drifting buoy 52514

Last reported at 2015-Jul-28 22:00 UTC. Time now 2015-Jul-29 00:35 UTC.
Position N 20°25' E 123°14'.

Date/timePositionNaut miles runAvg speedWind from/ knotsBaromVisibWave heightAir tempDewpointWater temp
2015-Jul-28 22:00N 20°25' E 123°14'0 0.1
2015-Jul-28 21:00N 20°25' E 123°14'1 0.3
2015-Jul-28 19:00N 20°25' E 123°14'1 0.7
2015-Jul-28 18:00N 20°26' E 123°15'5 0.5
2015-Jul-28 09:00N 20°24' E 123°10'10 0.8
2015-Jul-27 20:00N 20°17' E 123°19'0 0.3
2015-Jul-27 19:00N 20°17' E 123°19'2 0.4
2015-Jul-27 14:00N 20°19' E 123°20'4 0.8
2015-Jul-27 09:00N 20°19' E 123°16'2 0.5
2015-Jul-27 05:00N 20°17' E 123°15'5 0.7
2015-Jul-26 22:00N 20°12' E 123°17'1 1.0
2015-Jul-26 21:00N 20°12' E 123°18'0 0.4
2015-Jul-26 20:00N 20°12' E 123°18'1 0.4
2015-Jul-26 17:00N 20°12' E 123°19'0 0.0
2015-Jul-26 16:00N 20°12' E 123°19'2 0.7
2015-Jul-26 13:00N 20°13' E 123°21'0 0.3
2015-Jul-26 12:00N 20°14' E 123°21'1 1.3
2015-Jul-26 11:00N 20°15' E 123°21'1 0.5
2015-Jul-26 09:00N 20°15' E 123°20'2 0.9
2015-Jul-26 07:00N 20°14' E 123°18'1 0.3
2015-Jul-26 05:00N 20°14' E 123°17'1 0.5
2015-Jul-26 02:00N 20°13' E 123°18'0 0.1
2015-Jul-25 22:00N 20°13' E 123°17'1 0.2
2015-Jul-25 18:00N 20°12' E 123°18'0 0.1
2015-Jul-25 17:00N 20°12' E 123°18'3 0.4
2015-Jul-25 08:00N 20°15' E 123°20'1 0.8
2015-Jul-25 07:00N 20°14' E 123°19'0 0.4
2015-Jul-25 06:00N 20°14' E 123°20'0 0.0
2015-Jul-25 05:00N 20°14' E 123°20'2 0.3
2015-Jul-24 22:00N 20°14' E 123°22'0 0.2
2015-Jul-24 21:00N 20°14' E 123°22'1 0.3
2015-Jul-24 18:00N 20°14' E 123°23'0 0.0
2015-Jul-24 17:00N 20°14' E 123°23'12 0.4
2015-Jul-23 09:00N 20°07' E 123°34'2 1.6
2015-Jul-23 08:00N 20°06' E 123°35'3 0.2
2015-Jul-22 20:00N 20°06' E 123°37'6 0.4
2015-Jul-22 06:00N 20°00' E 123°39'0 0.3
2015-Jul-22 05:00N 20°00' E 123°39'3 0.4
2015-Jul-21 22:00N 19°59' E 123°42'0 0.5
2015-Jul-21 21:00N 19°59' E 123°41'4 0.3
2015-Jul-21 08:00N 19°56' E 123°45'2 1.0
2015-Jul-21 06:00N 19°54' E 123°46'0 0.0
2015-Jul-21 05:00N 19°54' E 123°46'2 0.3
2015-Jul-20 22:00N 19°53' E 123°48'0 0.4
2015-Jul-20 21:00N 19°53' E 123°47'3 0.7
2015-Jul-20 17:00N 19°51' E 123°50'1 0.3
2015-Jul-20 14:00N 19°51' E 123°51'0 0.1
2015-Jul-20 12:00N 19°51' E 123°51'3 0.3
2015-Jul-20 02:00N 19°48' E 123°50'3 0.5
2015-Jul-19 19:00N 19°47' E 123°47'  

Dump ship's entire track history